Guadalupe, Arizona
Current Conditions -  °F | °C
As of 1:51 PM on Monday 20 Oct 2014 (Local Time) from KPHX Reporting Station
Few Clouds Few Clouds  
Wind Chill: 31°   Ceiling: Unl
Heat Index: 31°   Visibility: 10mi
Dew Point:   Wind: 5mph
Humidity: 26%   Direction: NA
Pressure: 29.84"   Gusts: NA
Location:  33.364°N, 111.931°W
Report Text: KPHX 202051Z VRB04KT 10SM FEW085 31/09 A2984 RMK AO2 SLP086 T03060089 58025
Loading
Personal Weather Stations






























Interactive Weather Map
Tropical Storm Tracking
New forecast layout! Learn more

10-Day Weather Forecast

Advertisements
Track Severe Weather on mobile